KGSP

Greenville Spartanburg International Airport

Greer, South Carolina, USA
METAR KGSP 231553Z 23009KT 10SM FEW027 SCT045 BKN060 21/16 A3044 RMK AO2 SLP301 T02110161
Observed Flight Rules
Feb-23 @ 15:53 UTC (45 minutes ago) Visual Flight Rules
Wind Visibility Clouds
230° at 9 knots 10 miles
  • Few at 2,700' AGL
  • Scattered at 4,500' AGL
  • Broken at 6,000' AGL
Temperatures Readings
Current 21°C / 70°F
Dewpoint 16°C / 61°F
Humidity 73%
Altimeter 30.44" Hg
Pressure 1030.1 hPa
Elevation 287
METAR KGSP 231553Z 23009KT 10SM FEW027 SCT045 BKN060 21/16 A3044 RMK AO2 SLP301 T02110161
Observed Flight Rules
Feb-23 @ 15:53 UTC
(45 minutes ago)
VFR
Wind Visibility
230° at 9 knots 10 miles
Clouds
  • Few at 2,700' AGL
  • Scattered at 4,500' AGL
  • Broken at 6,000' AGL
Temperature Dewpoint
21°C / 70°F 16°C / 61°F
Humidity Altimeter Pressure
73% 30.44" Hg 1030.1 hPa